Time;durP1;ratioP1;P1;durP2;ratioP2;P2;SDS_P1;SDS_P2;PMS_P1;PMS_P2;Temp;Humidity;BMP_temperature;BMP_pressure;BME280_temperature;BME280_humidity;BME280_pressure;Samples;Min_cycle;Max_cycle;Signal;HPM_P1;HPM_P2
2023/03/07 00:00:12;;;;;;;6.37;5.30;;;8.70;58.00;8.60;95228.00;;;;5029297;28;20290;-80
2023/03/07 00:02:40;;;;;;;7.33;5.93;;;8.70;58.00;8.60;95236.00;;;;5033906;28;20719;-80
2023/03/07 00:05:11;;;;;;;7.23;5.67;;;8.70;58.00;8.60;95235.00;;;;5031678;28;20212;-79
2023/03/07 00:07:38;;;;;;;7.07;5.47;;;8.70;58.00;8.50;95238.00;;;;5033752;28;20248;-81
2023/03/07 00:10:07;;;;;;;6.90;5.20;;;8.70;58.10;8.50;95238.00;;;;5031019;28;20320;-80
2023/03/07 00:12:35;;;;;;;6.53;5.70;;;8.70;58.10;8.50;95227.00;;;;5032090;28;20249;-79
2023/03/07 00:15:02;;;;;;;5.90;5.30;;;8.70;58.00;8.50;95224.00;;;;5032693;28;20200;-80
2023/03/07 00:17:29;;;;;;;6.13;5.53;;;8.70;58.00;8.50;95228.00;;;;5031893;28;20217;-80
2023/03/07 00:19:56;;;;;;;7.73;5.33;;;8.70;58.00;8.50;95231.00;;;;5031149;28;20635;-80
2023/03/07 00:22:25;;;;;;;6.73;5.17;;;8.70;58.00;8.50;95229.00;;;;5007380;28;20228;-80
2023/03/07 00:24:52;;;;;;;6.00;5.37;;;8.70;57.90;8.50;95223.00;;;;5024972;28;20201;-80
2023/03/07 00:27:21;;;;;;;6.40;5.00;;;8.70;58.00;8.50;95225.00;;;;5033341;28;20292;-79
2023/03/07 00:29:49;;;;;;;5.67;4.80;;;8.60;58.00;8.50;95216.00;;;;5031433;28;20209;-80
2023/03/07 00:32:16;;;;;;;7.40;5.97;;;8.60;58.00;8.50;95223.00;;;;5031602;28;20217;-79
2023/03/07 00:34:43;;;;;;;6.97;5.80;;;8.60;58.20;8.50;95213.00;;;;5031995;28;20203;-79
2023/03/07 00:37:11;;;;;;;6.43;5.17;;;8.60;58.10;8.50;95215.00;;;;5032113;28;20276;-80
2023/03/07 00:39:40;;;;;;;6.10;4.73;;;8.60;58.00;8.50;95219.00;;;;5029881;28;20224;-80
2023/03/07 00:42:07;;;;;;;7.40;5.40;;;8.60;58.00;8.50;95211.00;;;;5029440;28;20264;-80
2023/03/07 00:44:35;;;;;;;6.37;5.17;;;8.60;58.00;8.50;95208.00;;;;5028919;28;20208;-80
2023/03/07 00:47:03;;;;;;;5.27;4.77;;;8.60;58.10;8.50;95207.00;;;;5033194;28;20234;-80
2023/03/07 00:49:30;;;;;;;8.60;5.53;;;8.60;58.00;8.50;95192.00;;;;5034174;28;20283;-80
2023/03/07 00:51:58;;;;;;;6.10;4.93;;;8.60;58.10;8.50;95198.00;;;;5023005;28;20784;-80
2023/03/07 00:54:26;;;;;;;6.60;5.23;;;8.60;58.00;8.50;95207.00;;;;5030142;28;20221;-80
2023/03/07 00:56:54;;;;;;;6.70;5.50;;;8.60;58.00;8.50;95195.00;;;;5031120;28;20197;-80
2023/03/07 00:59:22;;;;;;;5.80;5.20;;;8.60;58.20;8.40;95187.00;;;;5029670;28;20193;-80
2023/03/07 01:01:49;;;;;;;6.30;5.03;;;8.60;58.20;8.50;95190.00;;;;5032581;28;20217;-80
2023/03/07 01:04:16;;;;;;;6.63;4.83;;;8.60;58.10;8.40;95187.00;;;;5033729;28;20585;-79
2023/03/07 01:06:43;;;;;;;6.43;5.33;;;8.60;58.10;8.40;95179.00;;;;5047533;28;20229;-79
2023/03/07 01:09:11;;;;;;;6.97;4.97;;;8.60;58.20;8.50;95180.00;;;;5027156;28;20302;-79
2023/03/07 01:11:38;;;;;;;5.87;5.27;;;8.60;58.20;8.40;95174.00;;;;5037691;28;20315;-80
2023/03/07 01:14:08;;;;;;;6.20;4.63;;;8.60;58.30;8.40;95174.00;;;;5039935;28;20193;-79
2023/03/07 01:16:38;;;;;;;6.87;5.23;;;8.60;58.30;8.50;95170.00;;;;5031322;28;20208;-81
2023/03/07 01:19:07;;;;;;;6.47;5.17;;;8.60;58.30;8.40;95172.00;;;;5024241;28;20197;-80
2023/03/07 01:21:37;;;;;;;6.00;4.83;;;8.60;58.20;8.40;95185.00;;;;5033745;28;20400;-80
2023/03/07 01:24:05;;;;;;;5.40;4.80;;;8.60;58.30;8.40;95166.00;;;;5032572;28;20220;-80
2023/03/07 01:26:33;;;;;;;6.77;4.73;;;8.60;58.30;8.40;95174.00;;;;5031208;28;20574;-80
2023/03/07 01:29:03;;;;;;;5.97;5.03;;;8.60;58.30;8.50;95167.00;;;;5022313;28;20228;-81
2023/03/07 01:31:32;;;;;;;6.43;5.00;;;8.60;58.30;8.50;95170.00;;;;5025993;28;20820;-80
2023/03/07 01:34:01;;;;;;;6.00;4.90;;;8.60;58.20;8.40;95158.00;;;;5029806;28;20284;-80
2023/03/07 01:36:31;;;;;;;6.27;4.77;;;8.60;58.30;8.40;95166.00;;;;5031540;28;20204;-80
2023/03/07 01:39:05;;;;;;;6.37;5.03;;;8.60;58.30;8.40;95155.00;;;;5030344;28;20195;-80
2023/03/07 01:41:33;;;;;;;6.43;5.20;;;8.60;58.30;8.40;95159.00;;;;5031387;28;20644;-80
2023/03/07 01:44:04;;;;;;;8.07;5.37;;;8.60;58.30;8.40;95146.00;;;;5033111;28;20280;-80
2023/03/07 01:46:44;;;;;;;7.07;4.97;;;8.60;58.10;8.40;95144.00;;;;5032833;28;20284;-80
2023/03/07 01:49:27;;;;;;;5.87;5.10;;;8.60;58.30;8.40;95139.00;;;;5034991;28;20193;-80
2023/03/07 01:52:03;;;;;;;6.87;5.23;;;8.60;58.20;8.40;95136.00;;;;5028887;28;20224;-80
2023/03/07 01:54:34;;;;;;;6.53;5.00;;;8.60;58.10;8.40;95138.00;;;;5039558;28;20285;-80
2023/03/07 01:57:04;;;;;;;7.10;5.63;;;8.60;58.00;8.40;95132.00;;;;5033210;28;20293;-80
2023/03/07 01:59:35;;;;;;;6.93;4.97;;;8.50;58.00;8.40;95132.00;;;;5034369;28;20544;-80
2023/03/07 02:02:11;;;;;;;7.00;5.27;;;8.50;58.10;8.40;95135.00;;;;5034630;28;20307;-80
2023/03/07 02:04:46;;;;;;;8.57;5.57;;;8.60;58.10;8.40;95133.00;;;;5033066;28;20566;-80
2023/03/07 02:07:16;;;;;;;6.03;5.23;;;8.50;58.10;8.40;95128.00;;;;5033407;28;20205;-80
2023/03/07 02:09:46;;;;;;;5.97;5.30;;;8.50;58.00;8.40;95115.00;;;;5026882;28;20654;-81
2023/03/07 02:12:15;;;;;;;7.40;5.23;;;8.50;58.00;8.40;95114.00;;;;5034914;28;20752;-81
2023/03/07 02:14:46;;;;;;;6.77;5.83;;;8.50;58.00;8.40;95113.00;;;;5035167;28;20217;-80
2023/03/07 02:17:15;;;;;;;6.10;5.17;;;8.60;58.10;8.40;95108.00;;;;5033382;28;20265;-80
2023/03/07 02:20:02;;;;;;;7.57;5.50;;;8.50;58.00;8.40;95114.00;;;;5017057;28;20201;-79
2023/03/07 02:22:32;;;;;;;7.23;5.27;;;8.50;58.00;8.40;95112.00;;;;5033161;28;20258;-80
2023/03/07 02:25:05;;;;;;;6.90;5.53;;;8.60;58.10;8.40;95108.00;;;;5015542;28;20678;-80
2023/03/07 02:27:37;;;;;;;8.10;5.53;;;8.50;58.10;8.40;95106.00;;;;5029952;28;20682;-81
2023/03/07 02:30:06;;;;;;;8.13;5.87;;;8.50;57.90;8.40;95099.00;;;;5014628;28;20204;-80
2023/03/07 02:32:33;;;;;;;8.13;5.37;;;8.50;57.90;8.40;95109.00;;;;5031496;28;20217;-80
2023/03/07 02:35:00;;;;;;;7.07;5.83;;;8.50;58.00;8.40;95109.00;;;;5031849;28;20193;-80
2023/03/07 02:37:33;;;;;;;6.57;5.37;;;8.50;58.00;8.40;95120.00;;;;5031047;28;20232;-79
2023/03/07 02:40:07;;;;;;;7.70;6.00;;;8.50;58.10;8.40;95113.00;;;;5033390;28;20276;-80
2023/03/07 02:42:41;;;;;;;7.80;5.93;;;8.50;58.10;8.40;95107.00;;;;5033282;28;20698;-80
2023/03/07 02:45:12;;;;;;;8.17;5.37;;;8.60;58.10;8.40;95109.00;;;;5036407;28;20203;-80
2023/03/07 02:47:41;;;;;;;7.83;5.63;;;8.50;58.10;8.40;95114.00;;;;5032678;28;20201;-79
2023/03/07 02:50:11;;;;;;;8.17;6.07;;;8.50;58.20;8.40;95108.00;;;;5031981;28;20217;-80
2023/03/07 02:52:39;;;;;;;7.80;5.70;;;8.50;58.20;8.40;95107.00;;;;5031886;28;20251;-80
2023/03/07 02:55:09;;;;;;;8.50;6.10;;;8.60;58.30;8.40;95105.00;;;;5035409;28;20280;-79
2023/03/07 02:57:38;;;;;;;6.73;5.93;;;8.60;58.30;8.40;95112.00;;;;5016731;28;20208;-80
2023/03/07 03:00:09;;;;;;;7.50;5.87;;;8.60;58.10;8.40;95117.00;;;;5018596;28;20196;-79
2023/03/07 03:02:36;;;;;;;9.30;6.10;;;8.60;58.10;8.40;95105.00;;;;5035339;28;20300;-80
2023/03/07 03:05:04;;;;;;;6.33;5.43;;;8.60;58.10;8.40;95108.00;;;;5036252;28;20217;-80
2023/03/07 03:07:31;;;;;;;6.53;5.53;;;8.60;58.00;8.40;95111.00;;;;5036225;28;20208;-80
2023/03/07 03:10:01;;;;;;;7.90;5.83;;;8.60;57.90;8.40;95109.00;;;;5036155;28;20649;-80
2023/03/07 03:12:29;;;;;;;6.67;5.53;;;8.60;58.40;8.30;95110.00;;;;5036436;28;20255;-80
2023/03/07 03:14:58;;;;;;;7.03;5.70;;;8.60;58.00;8.40;95103.00;;;;5029555;28;20581;-81
2023/03/07 03:17:25;;;;;;;7.03;5.77;;;8.60;58.00;8.40;95107.00;;;;5030407;28;20657;-80
2023/03/07 03:19:53;;;;;;;8.30;5.60;;;8.50;57.90;8.30;95102.00;;;;5035437;28;20225;-79
2023/03/07 03:22:20;;;;;;;7.80;5.40;;;8.50;57.90;8.40;95094.00;;;;5032826;28;20219;-79
2023/03/07 03:24:48;;;;;;;5.80;5.10;;;8.50;57.90;8.30;95098.00;;;;5033880;28;20248;-80
2023/03/07 03:27:15;;;;;;;6.80;5.33;;;8.50;57.80;8.30;95099.00;;;;5027283;28;20201;-80
2023/03/07 03:29:43;;;;;;;5.97;5.20;;;8.50;57.90;8.30;95097.00;;;;5034339;28;20292;-80
2023/03/07 03:32:11;;;;;;;7.30;5.67;;;8.50;57.90;8.30;95095.00;;;;5035204;28;20651;-79
2023/03/07 03:34:39;;;;;;;6.57;5.23;;;8.50;57.80;8.30;95097.00;;;;5031599;28;20285;-80
2023/03/07 03:37:07;;;;;;;6.47;4.90;;;8.50;57.80;8.30;95092.00;;;;5033776;28;20309;-79
2023/03/07 03:39:34;;;;;;;6.00;4.70;;;8.60;57.90;8.30;95094.00;;;;5035448;28;20663;-80
2023/03/07 03:42:02;;;;;;;6.47;5.27;;;8.50;57.90;8.30;95089.00;;;;5034861;28;20248;-80
2023/03/07 03:44:29;;;;;;;6.80;5.57;;;8.50;57.90;8.30;95081.00;;;;5049139;28;20197;-80
2023/03/07 03:46:56;;;;;;;6.07;5.03;;;8.50;57.80;8.30;95076.00;;;;5035296;28;20204;-80
2023/03/07 03:49:26;;;;;;;5.23;4.73;;;8.50;57.70;8.30;95078.00;;;;5034637;28;20236;-80
2023/03/07 03:51:53;;;;;;;6.13;4.63;;;8.50;57.60;8.30;95080.00;;;;5027259;28;20220;-80
2023/03/07 03:54:20;;;;;;;6.20;5.00;;;8.50;57.60;8.30;95086.00;;;;5037348;28;20201;-80
2023/03/07 03:56:47;;;;;;;6.17;5.13;;;8.50;57.70;8.30;95073.00;;;;5035273;28;20193;-80
2023/03/07 03:59:15;;;;;;;5.93;4.93;;;8.50;57.60;8.30;95078.00;;;;5028354;28;20194;-80
2023/03/07 04:01:42;;;;;;;6.97;5.07;;;8.50;57.60;8.30;95065.00;;;;5033214;28;20311;-80
2023/03/07 04:04:10;;;;;;;6.13;4.70;;;8.50;57.50;8.20;95067.00;;;;5035171;28;20216;-80
2023/03/07 04:06:39;;;;;;;7.73;5.43;;;8.50;57.50;8.20;95070.00;;;;5034015;28;20197;-80
2023/03/07 04:09:06;;;;;;;5.83;4.87;;;8.50;57.40;8.20;95067.00;;;;5033382;28;20202;-79
2023/03/07 04:11:33;;;;;;;7.67;5.37;;;8.50;57.50;8.20;95069.00;;;;5035161;28;20232;-80
2023/03/07 04:14:01;;;;;;;7.83;5.07;;;8.50;57.50;8.20;95066.00;;;;5032539;28;20206;-79
2023/03/07 04:16:28;;;;;;;6.63;5.37;;;8.40;57.40;8.10;95067.00;;;;5023144;28;20739;-80
2023/03/07 04:18:56;;;;;;;6.47;4.90;;;8.40;57.40;8.10;95059.00;;;;5043306;28;20276;-79
2023/03/07 04:21:23;;;;;;;6.17;5.30;;;8.40;57.30;8.10;95062.00;;;;5033454;28;20661;-79
2023/03/07 04:23:55;;;;;;;5.33;4.40;;;8.40;57.30;8.00;95063.00;;;;5032400;28;20198;-80
2023/03/07 04:26:23;;;;;;;5.90;4.87;;;8.40;57.20;8.00;95065.00;;;;5047895;28;20598;-79
2023/03/07 04:28:51;;;;;;;6.07;4.87;;;8.30;57.10;8.00;95066.00;;;;5036015;28;20204;-79
2023/03/07 04:31:21;;;;;;;5.30;4.40;;;8.30;57.10;7.90;95065.00;;;;5016783;28;20304;-80
2023/03/07 04:33:50;;;;;;;7.40;4.77;;;8.30;57.10;7.90;95072.00;;;;5035807;28;20244;-80
2023/03/07 04:36:18;;;;;;;5.07;4.47;;;8.30;57.20;7.90;95070.00;;;;5036873;28;20247;-79
2023/03/07 04:38:47;;;;;;;6.47;4.77;;;8.20;57.20;7.90;95064.00;;;;5036535;28;20198;-79
2023/03/07 04:41:19;;;;;;;6.17;4.97;;;8.20;57.20;7.80;95066.00;;;;5051309;28;20221;-80
2023/03/07 04:43:47;;;;;;;6.37;5.10;;;8.20;57.30;7.80;95059.00;;;;5041676;28;20310;-80
2023/03/07 04:46:19;;;;;;;5.13;4.60;;;8.20;57.20;7.80;95053.00;;;;5024809;28;20217;-81
2023/03/07 04:48:47;;;;;;;5.93;4.13;;;8.10;57.30;7.80;95049.00;;;;5051364;28;20637;-80
2023/03/07 04:51:15;;;;;;;5.17;4.30;;;8.10;57.30;7.80;95060.00;;;;5050620;28;20280;-80
2023/03/07 04:53:43;;;;;;;5.90;4.77;;;8.10;57.20;7.70;95055.00;;;;5034368;28;20259;-80
2023/03/07 04:56:12;;;;;;;6.33;4.93;;;8.10;57.20;7.70;95055.00;;;;5036239;28;20705;-80
2023/03/07 04:58:42;;;;;;;6.17;5.00;;;8.00;57.20;7.70;95062.00;;;;5034786;28;20233;-79
2023/03/07 05:01:09;;;;;;;6.30;4.53;;;8.00;57.30;7.70;95055.00;;;;5018043;28;20733;-80
2023/03/07 05:03:36;;;;;;;5.17;4.60;;;8.00;57.30;7.60;95066.00;;;;5035160;28;20201;-80
2023/03/07 05:06:07;;;;;;;5.30;4.40;;;7.90;57.30;7.60;95061.00;;;;5035806;28;20810;-79
2023/03/07 05:08:35;;;;;;;5.97;4.30;;;7.90;57.30;7.60;95056.00;;;;5036913;28;20268;-80
2023/03/07 05:11:03;;;;;;;5.83;4.10;;;7.80;57.20;7.50;95068.00;;;;5035069;28;20209;-79
2023/03/07 05:13:30;;;;;;;5.27;4.63;;;7.80;57.20;7.50;95057.00;;;;5038842;28;20632;-79
2023/03/07 05:16:00;;;;;;;5.73;4.40;;;7.80;57.30;7.50;95068.00;;;;5029996;28;20220;-79
2023/03/07 05:18:28;;;;;;;6.00;4.33;;;7.80;57.30;7.50;95058.00;;;;5036210;28;20223;-79
2023/03/07 05:20:55;;;;;;;5.80;4.30;;;7.70;57.20;7.40;95059.00;;;;5036131;28;20255;-79
2023/03/07 05:23:23;;;;;;;5.70;4.50;;;7.70;57.30;7.40;95060.00;;;;5035914;28;20289;-79
2023/03/07 05:25:51;;;;;;;6.33;4.37;;;7.70;57.30;7.40;95056.00;;;;5037163;28;20261;-80
2023/03/07 05:28:19;;;;;;;5.37;4.63;;;7.70;57.30;7.30;95056.00;;;;5035439;28;20231;-80
2023/03/07 05:30:48;;;;;;;5.80;4.90;;;7.70;57.40;7.30;95052.00;;;;5033968;28;20667;-79
2023/03/07 05:33:17;;;;;;;5.57;4.57;;;7.60;57.30;7.30;95060.00;;;;5032519;28;20651;-79
2023/03/07 05:35:45;;;;;;;6.37;5.17;;;7.60;57.40;7.30;95059.00;;;;5034875;28;20435;-79
2023/03/07 05:38:12;;;;;;;6.07;4.53;;;7.60;57.40;7.30;95060.00;;;;5034891;28;20189;-80
2023/03/07 05:40:40;;;;;;;7.13;4.73;;;7.60;57.50;7.30;95060.00;;;;5033740;28;20288;-80
2023/03/07 05:43:08;;;;;;;7.63;5.30;;;7.60;57.60;7.30;95052.00;;;;5038890;28;20333;-83
2023/03/07 05:45:35;;;;;;;6.33;4.80;;;7.60;57.60;7.40;95055.00;;;;5057085;28;20259;-81
2023/03/07 05:48:04;;;;;;;5.80;4.37;;;7.60;57.60;7.40;95055.00;;;;5040131;28;20718;-81
2023/03/07 05:50:33;;;;;;;6.47;4.87;;;7.60;57.70;7.50;95068.00;;;;5039633;28;20304;-82
2023/03/07 05:53:00;;;;;;;6.67;4.57;;;7.60;57.80;7.60;95060.00;;;;5037133;28;20706;-82
2023/03/07 05:55:28;;;;;;;5.57;4.40;;;7.70;57.90;7.60;95069.00;;;;5037739;28;20203;-82
2023/03/07 05:57:56;;;;;;;5.60;4.93;;;7.70;58.40;7.70;95068.00;;;;5032369;28;20194;-82
2023/03/07 06:00:23;;;;;;;5.10;4.60;;;7.80;57.90;7.80;95069.00;;;;5046836;28;20281;-80
2023/03/07 06:02:51;;;;;;;5.73;4.30;;;7.80;57.90;7.80;95070.00;;;;5035246;28;20739;-80
2023/03/07 06:05:18;;;;;;;5.70;4.40;;;7.80;57.80;7.90;95068.00;;;;5035482;28;20197;-82
2023/03/07 06:07:47;;;;;;;5.50;4.33;;;8.00;58.00;7.90;95062.00;;;;5033934;28;20288;-82
2023/03/07 06:10:15;;;;;;;5.63;4.40;;;7.90;58.40;8.00;95058.00;;;;5035352;28;20280;-82
2023/03/07 06:12:42;;;;;;;5.70;4.73;;;8.00;57.80;8.00;95057.00;;;;5033573;28;20229;-79
2023/03/07 06:15:10;;;;;;;5.20;4.13;;;8.00;57.60;8.00;95055.00;;;;5049423;28;20208;-81
2023/03/07 06:17:37;;;;;;;5.33;4.73;;;8.10;57.60;8.00;95060.00;;;;5025771;28;20233;-82
2023/03/07 06:20:06;;;;;;;5.33;4.77;;;8.10;57.50;8.10;95062.00;;;;5017434;28;20215;-82
2023/03/07 06:22:37;;;;;;;6.27;4.80;;;8.20;57.60;8.10;95054.00;;;;5033362;28;20713;-82
2023/03/07 06:25:09;;;;;;;6.37;4.90;;;8.20;57.60;8.20;95062.00;;;;5013743;28;20569;-82
2023/03/07 06:27:39;;;;;;;7.73;5.07;;;8.20;57.50;8.20;95071.00;;;;5030119;28;20280;-82
2023/03/07 06:30:08;;;;;;;5.77;4.87;;;8.30;57.40;8.20;95057.00;;;;5037611;28;20197;-82
2023/03/07 06:32:36;;;;;;;7.07;4.33;;;8.30;57.30;8.20;95067.00;;;;5038693;28;20236;-82
2023/03/07 06:35:04;;;;;;;6.87;5.20;;;8.30;57.30;8.30;95061.00;;;;5038957;28;20201;-82
2023/03/07 06:37:31;;;;;;;6.33;5.20;;;8.30;57.30;8.30;95066.00;;;;5037544;28;20259;-81
2023/03/07 06:39:59;;;;;;;5.53;4.93;;;8.40;57.20;8.30;95058.00;;;;5037797;28;20197;-81
2023/03/07 06:42:27;;;;;;;6.00;5.00;;;8.40;57.10;8.40;95067.00;;;;5039056;28;20231;-81
2023/03/07 06:44:55;;;;;;;4.90;4.33;;;8.40;57.10;8.40;95071.00;;;;5005697;28;20205;-81
2023/03/07 06:47:22;;;;;;;6.80;4.43;;;8.40;57.00;8.40;95062.00;;;;5039807;28;20280;-82
2023/03/07 06:49:49;;;;;;;5.00;4.50;;;8.50;57.00;8.50;95071.00;;;;5039469;28;20197;-82
2023/03/07 06:52:16;;;;;;;7.13;4.97;;;8.50;57.00;8.50;95068.00;;;;5038985;28;20232;-82
2023/03/07 06:54:44;;;;;;;5.70;4.80;;;8.50;56.80;8.50;95061.00;;;;5040594;28;20228;-86
2023/03/07 06:57:11;;;;;;;6.80;4.90;;;8.60;56.80;8.50;95064.00;;;;5039627;28;20280;-82
2023/03/07 06:59:40;;;;;;;6.53;4.60;;;8.60;56.70;8.50;95060.00;;;;5038743;28;20674;-82
2023/03/07 07:02:11;;;;;;;5.17;4.40;;;8.60;56.50;8.50;95060.00;;;;5038119;28;20304;-84
2023/03/07 07:04:38;;;;;;;6.73;5.00;;;8.60;56.50;8.60;95075.00;;;;5039925;28;20200;-81
2023/03/07 07:07:06;;;;;;;5.23;4.20;;;8.70;56.50;8.60;95073.00;;;;5040309;28;20260;-82
2023/03/07 07:09:34;;;;;;;5.57;4.30;;;8.70;56.60;8.70;95074.00;;;;5038166;28;20194;-82
2023/03/07 07:12:03;;;;;;;4.77;4.10;;;8.70;56.40;8.70;95080.00;;;;5036946;28;20610;-83
2023/03/07 07:14:33;;;;;;;4.13;3.73;;;8.80;56.40;8.80;95066.00;;;;5039545;28;20233;-81
2023/03/07 07:17:02;;;;;;;4.97;4.33;;;8.80;56.30;8.80;95070.00;;;;5037990;28;20233;-82
2023/03/07 07:19:29;;;;;;;5.77;3.87;;;8.80;56.70;8.90;95070.00;;;;5038016;28;20221;-82
2023/03/07 07:21:56;;;;;;;5.40;4.50;;;8.90;56.70;8.90;95063.00;;;;5038149;28;20662;-82
2023/03/07 07:24:24;;;;;;;5.83;4.47;;;8.90;56.00;8.90;95068.00;;;;5026191;28;20260;-84
2023/03/07 07:26:52;;;;;;;4.40;4.00;;;8.90;55.90;9.00;95076.00;;;;5031882;28;20202;-82
2023/03/07 07:29:19;;;;;;;5.57;4.27;;;9.00;55.90;9.00;95066.00;;;;5026089;28;20193;-82
2023/03/07 07:31:48;;;;;;;4.17;3.77;;;9.00;55.80;9.00;95057.00;;;;5034814;28;20301;-81
2023/03/07 07:34:17;;;;;;;5.03;4.20;;;9.00;55.60;9.10;95064.00;;;;5035076;28;20194;-81
2023/03/07 07:36:44;;;;;;;5.70;4.43;;;9.10;55.50;9.10;95053.00;;;;5037758;28;20232;-82
2023/03/07 07:39:14;;;;;;;5.67;4.27;;;9.10;55.40;9.20;95050.00;;;;5033439;28;20216;-82
2023/03/07 07:41:43;;;;;;;5.33;4.43;;;9.20;55.40;9.20;95050.00;;;;5039884;28;20426;-82
2023/03/07 07:44:10;;;;;;;4.30;3.83;;;9.20;55.30;9.20;95045.00;;;;5051547;28;20279;-80
2023/03/07 07:46:37;;;;;;;4.43;3.73;;;9.20;55.20;9.20;95051.00;;;;5039222;28;20229;-82
2023/03/07 07:49:05;;;;;;;4.63;3.90;;;9.30;55.10;9.20;95057.00;;;;5039422;28;20313;-81
2023/03/07 07:51:33;;;;;;;5.10;4.20;;;9.30;55.10;9.20;95049.00;;;;5029195;28;20300;-81
2023/03/07 07:54:01;;;;;;;5.77;4.00;;;9.30;54.90;9.30;95056.00;;;;5035249;28;20280;-82
2023/03/07 07:56:28;;;;;;;5.00;3.87;;;9.30;54.90;9.30;95057.00;;;;5033343;28;20260;-82
2023/03/07 07:58:55;;;;;;;5.13;4.07;;;9.30;54.80;9.40;95046.00;;;;5032481;28;20252;-82
2023/03/07 08:01:25;;;;;;;4.77;4.10;;;9.40;54.90;9.40;95052.00;;;;5037473;28;20304;-82
2023/03/07 08:03:53;;;;;;;6.73;5.03;;;9.40;54.80;9.50;95047.00;;;;5024448;28;20206;-82
2023/03/07 08:06:22;;;;;;;5.37;4.27;;;9.40;54.80;9.50;95043.00;;;;5039942;28;20456;-82
2023/03/07 08:08:52;;;;;;;5.77;4.67;;;9.50;54.80;9.60;95043.00;;;;5036512;28;20197;-82
2023/03/07 08:11:21;;;;;;;4.17;3.83;;;9.50;54.70;9.60;95041.00;;;;5035985;28;20598;-81
2023/03/07 08:13:50;;;;;;;5.30;3.97;;;9.50;54.60;9.70;95041.00;;;;5033575;28;20218;-82
2023/03/07 08:16:20;;;;;;;5.77;3.90;;;9.60;54.70;9.80;95043.00;;;;5037832;28;20193;-83
2023/03/07 08:18:50;;;;;;;4.37;3.27;;;9.70;54.60;9.90;95042.00;;;;5029814;28;20260;-81
2023/03/07 08:21:20;;;;;;;4.57;4.13;;;9.80;54.70;10.00;95051.00;;;;5036461;28;20255;-83
2023/03/07 08:23:47;;;;;;;5.43;3.70;;;9.90;54.90;10.20;95051.00;;;;5032922;28;20320;-82
2023/03/07 08:26:17;;;;;;;4.73;3.80;;;10.00;54.80;10.40;95061.00;;;;5020187;28;20205;-82
2023/03/07 08:28:44;;;;;;;4.13;3.40;;;10.10;54.90;10.50;95044.00;;;;5021775;28;20251;-81
2023/03/07 08:31:16;;;;;;;3.83;3.50;;;10.20;54.70;10.60;95055.00;;;;5030527;28;20209;-81
2023/03/07 08:33:46;;;;;;;4.23;3.77;;;10.30;54.40;10.70;95039.00;;;;5036073;28;20274;-81
2023/03/07 08:36:15;;;;;;;3.87;3.57;;;10.50;54.60;10.90;95040.00;;;;5037385;28;20571;-82
2023/03/07 08:38:43;;;;;;;3.73;3.23;;;10.60;54.50;11.10;95048.00;;;;5032001;28;20212;-82
2023/03/07 08:41:10;;;;;;;4.70;3.83;;;10.70;54.20;11.20;95048.00;;;;5026092;28;20236;-82
2023/03/07 08:43:39;;;;;;;5.10;3.57;;;10.80;54.10;11.30;95039.00;;;;5042350;28;20273;-82
2023/03/07 08:46:06;;;;;;;4.03;3.63;;;10.90;53.90;11.40;95039.00;;;;5033538;28;20225;-83
2023/03/07 08:48:36;;;;;;;4.33;3.07;;;11.10;54.00;11.50;95044.00;;;;5032447;28;20193;-83
2023/03/07 08:51:09;;;;;;;3.90;3.23;;;11.20;53.50;11.60;95049.00;;;;5032390;28;20316;-80
2023/03/07 08:53:38;;;;;;;3.30;2.90;;;11.30;53.20;11.60;95032.00;;;;5034087;28;20257;-82
2023/03/07 08:56:10;;;;;;;4.37;3.43;;;11.30;53.40;11.80;95038.00;;;;5033308;28;20276;-82
2023/03/07 08:58:40;;;;;;;3.50;3.20;;;11.50;53.40;11.90;95033.00;;;;5032500;28;20212;-82
2023/03/07 09:01:09;;;;;;;3.73;3.37;;;11.60;53.30;12.00;95036.00;;;;5032388;28;20243;-82
2023/03/07 09:03:37;;;;;;;4.67;3.63;;;11.70;53.20;12.20;95039.00;;;;5034434;28;20217;-82
2023/03/07 09:06:07;;;;;;;4.27;3.67;;;11.80;53.10;12.30;95039.00;;;;5023732;28;20204;-81
2023/03/07 09:08:34;;;;;;;4.93;4.00;;;11.90;53.10;12.40;95039.00;;;;5031418;28;20717;-81
2023/03/07 09:11:04;;;;;;;4.07;3.63;;;12.00;53.00;12.60;95040.00;;;;5035685;28;20253;-80
2023/03/07 09:13:31;;;;;;;3.80;3.50;;;12.10;52.80;12.70;95035.00;;;;5034794;28;20252;-81
2023/03/07 09:16:00;;;;;;;4.83;3.70;;;12.20;52.30;12.80;95039.00;;;;5037407;28;20207;-84
2023/03/07 09:18:27;;;;;;;3.93;3.53;;;12.30;52.20;12.90;95040.00;;;;5033384;28;20228;-85
2023/03/07 09:20:54;;;;;;;5.60;4.73;;;12.40;52.00;13.00;95037.00;;;;5035850;28;20656;-83
2023/03/07 09:23:22;;;;;;;6.03;4.93;;;12.50;52.00;13.10;95031.00;;;;5035581;28;20292;-83
2023/03/07 09:25:49;;;;;;;5.43;3.93;;;12.60;51.80;13.30;95035.00;;;;5029636;28;20229;-81
2023/03/07 09:28:16;;;;;;;3.10;2.80;;;12.70;51.80;13.40;95027.00;;;;5019741;28;20204;-82
2023/03/07 09:30:44;;;;;;;3.37;3.07;;;12.80;51.70;13.50;95027.00;;;;5042893;28;20217;-82
2023/03/07 09:33:13;;;;;;;3.33;3.03;;;12.90;51.50;13.60;95020.00;;;;5023140;28;20222;-83
2023/03/07 09:35:40;;;;;;;3.40;3.10;;;13.10;51.40;13.70;95035.00;;;;5038391;28;20208;-84
2023/03/07 09:38:09;;;;;;;3.03;2.73;;;13.20;51.40;13.90;95024.00;;;;5054980;28;20205;-83
2023/03/07 09:40:38;;;;;;;4.50;2.67;;;13.30;51.20;14.00;95018.00;;;;5027926;28;20225;-81
2023/03/07 09:43:18;;;;;;;3.77;3.47;;;13.40;50.90;14.10;95011.00;;;;5032273;28;20213;-84
2023/03/07 09:45:58;;;;;;;3.07;2.77;;;13.50;50.20;14.20;95020.00;;;;5024908;28;20197;-84
2023/03/07 09:49:16;;;;;;;3.40;2.93;;;13.60;50.30;14.30;95009.00;;;;5038108;28;20638;-83
2023/03/07 09:51:46;;;;;;;3.93;2.97;;;13.80;50.00;14.50;95006.00;;;;5033295;28;20316;-83
2023/03/07 09:54:19;;;;;;;3.57;3.27;;;13.90;50.80;14.80;95003.00;;;;5031105;28;20320;-82
2023/03/07 09:56:51;;;;;;;3.50;3.20;;;14.00;50.30;14.90;95006.00;;;;5031918;28;20310;-83
2023/03/07 09:59:29;;;;;;;2.97;2.63;;;14.20;50.20;15.10;95006.00;;;;5033118;28;20202;-84
2023/03/07 10:02:05;;;;;;;3.10;2.80;;;14.30;50.00;15.30;94999.00;;;;5030866;28;20252;-83
2023/03/07 10:04:46;;;;;;;3.33;3.03;;;14.50;50.00;15.40;94991.00;;;;5031057;28;20578;-83
2023/03/07 10:07:17;;;;;;;3.40;3.10;;;14.60;49.50;15.60;94991.00;;;;5038082;28;20292;-82
2023/03/07 10:09:46;;;;;;;3.23;2.93;;;14.70;49.70;15.70;94993.00;;;;5034452;28;20205;-84
2023/03/07 10:12:43;;;;;;;3.83;3.03;;;14.90;49.50;15.80;94992.00;;;;5025835;28;20308;-83
2023/03/07 10:15:41;;;;;;;3.23;2.93;;;15.00;48.60;15.80;94987.00;;;;5037111;28;20288;-85
2023/03/07 10:18:27;;;;;;;3.97;3.40;;;15.20;47.80;15.80;94986.00;;;;5036789;28;20263;-82
2023/03/07 10:21:33;;;;;;;3.43;2.83;;;15.20;48.00;15.80;94986.00;;;;5016588;28;20256;-81
2023/03/07 10:24:37;;;;;;;3.40;3.10;;;15.30;47.30;15.80;94990.00;;;;5033491;28;20197;-80
2023/03/07 10:27:08;;;;;;;4.50;3.00;;;15.40;48.00;15.80;94972.00;;;;5037535;28;20237;-83
2023/03/07 10:29:43;;;;;;;3.63;3.33;;;15.50;48.00;15.70;94964.00;;;;5020044;28;20198;-82
2023/03/07 10:32:22;;;;;;;3.50;3.17;;;15.50;47.30;15.70;94970.00;;;;5032475;28;20698;-81
2023/03/07 10:34:59;;;;;;;3.80;3.40;;;15.60;46.60;15.70;94963.00;;;;5037404;28;20293;-82
2023/03/07 10:37:45;;;;;;;4.17;3.60;;;15.60;46.60;15.70;94966.00;;;;5035077;28;20591;-82
2023/03/07 10:40:25;;;;;;;3.67;3.30;;;15.60;46.50;15.70;94950.00;;;;5016115;28;20229;-84
2023/03/07 10:42:53;;;;;;;3.77;3.17;;;15.60;46.10;15.60;94957.00;;;;5049704;28;20212;-86
2023/03/07 10:45:21;;;;;;;3.67;3.23;;;15.60;46.50;15.60;94951.00;;;;5035453;28;20663;-82
2023/03/07 10:47:48;;;;;;;3.93;3.40;;;15.60;46.20;15.60;94938.00;;;;5035158;28;20733;-82
2023/03/07 10:50:31;;;;;;;4.03;3.33;;;15.60;45.90;15.50;94935.00;;;;5029419;28;20202;-84
2023/03/07 10:53:04;;;;;;;5.07;3.57;;;15.60;45.20;15.50;94936.00;;;;5035556;28;20244;-83
2023/03/07 10:55:42;;;;;;;4.50;4.03;;;15.60;45.80;15.50;94934.00;;;;5023085;28;20221;-83
2023/03/07 10:58:18;;;;;;;6.13;4.23;;;15.60;45.00;15.50;94930.00;;;;5033134;28;20247;-83
2023/03/07 11:00:57;;;;;;;4.33;3.93;;;15.50;44.70;15.40;94924.00;;;;5034940;28;20217;-82
2023/03/07 11:03:31;;;;;;;5.10;4.00;;;15.50;44.80;15.20;94918.00;;;;5036540;28;20201;-84
2023/03/07 11:06:00;;;;;;;5.10;4.03;;;15.40;43.40;15.10;94898.00;;;;5037022;28;20200;-84
2023/03/07 11:08:32;;;;;;;5.47;3.97;;;15.30;44.00;14.90;94894.00;;;;5038491;28;20220;-84
2023/03/07 11:11:03;;;;;;;4.83;3.90;;;15.20;44.30;14.80;94901.00;;;;5021129;28;20634;-83
2023/03/07 11:13:32;;;;;;;4.37;3.93;;;15.10;44.20;14.70;94882.00;;;;5037828;28;20213;-84
2023/03/07 11:16:18;;;;;;;4.43;3.97;;;15.00;43.90;14.60;94873.00;;;;5027884;28;20202;-83